View Sortable Currents For Network
ASOSAWOSCoCoRaHSCOOPDCPISUSM
SchoolNetOtherSCANMy FavoritesBy StateRWIS
RWIS SurfaceRWIS TrafficRWIS SoilBy NWS WFOUSCRN

Current AWOS Conditions

** This page will automatically refresh every five minutes.
Sorted by: (Today's Low Temperature)     Click on a column to sort it.

Add ID: Name: Ob Time   Wind [knots]   Rainfall
Temp (Hi / Lo) DewP Feels RH% Dir Speed Peak Gust
@ Time
Alti Vsby Hour Today
CBFCOUNCIL BLUFFS06:35 PM 63(70/39) 41 59 44 180 923 @ 02:55 PM 30.25 10 0
ORCOrange City06:35 PM 64(72/39) 43 61 46 200 925 @ 03:35 PM 30.16 10 0
DNSDENISON06:35 PM 63(70/39) 41 59 44 190 7G1425 @ 03:55 PM 30.24 10 0
SDASHENANDOAH MUNI06:35 PM 63(70/37) 43 60 48 190 920 @ 03:15 PM 30.29 10 0
CSQCRESTON06:35 PM 57(66/37) 45 54 64 190 820 @ 11:15 AM 30.31 10 0
I75Osceola06:35 PM 59(67/37) 44 56 57 170 516 @ 10:35 AM 30.31 10 0
OXVKnoxville06:35 PM 57(64/36) 43 53 59 190 617 @ 03:55 PM 30.3 9 0
CNCCHARITON06:35 PM 55(64/36) 43 51 64 180 718 @ 10:55 AM 30.32 10 0
LRJLE MARS06:35 PM 64(72/36) 39 60 40 190 9G1426 @ 02:15 PM 30.16 10 0
BNWBOONE MUNI06:35 PM 63(70/36) 43 60 48 6G1217 @ 09:35 AM 30.25 10 0
RDKRED OAK06:35 PM 63(70/36) 43 60 48 200 822 @ 03:15 PM 30.28 10 0
SLBStorm Lake06:35 PM 61(70/36) 41 57 48 210 926 @ 04:15 PM 30.2 10 0
SHLSHELDON06:35 PM 64(72/36) 39 60 40 200 11G1826 @ 04:15 PM 30.14 10 0
HNRHARLAN06:35 PM 63(70/36) 43 60 48 200 924 @ 04:55 PM 30.25 10 0
CINCARROLL06:35 PM 61(70/34) 41 57 48 200 625 @ 04:15 PM 30.23 10 0
AIOATLANTIC06:35 PM 63(68/34) 43 60 48 190 623 @ 04:55 PM 30.26 10 0
ICLCLARINDA06:35 PM 61(68/34) 43 57 51 200 719 @ 04:15 PM 30.31 10 0
FSWFORT MADISON06:35 PM 54(61/34) 39 50 57 190 38 @ 01:35 PM 30.37 10 0
AXAALGONA06:35 PM 61(72/34) 41 57 48 200 825 @ 02:55 PM 30.2 10 0
PEAPELLA06:35 PM 57(66/33) 42 53 57 170 415 @ 12:55 PM 30.32 10 0
CKPCherokee06:35 PM 63(69/33) 40 59 43 200 925 @ 04:55 PM 30.18 10 0
PROPerry06:55 PM 61(70/33) 41 48 0 018 @ 04:55 PM 30.26 10 0
GGIGrinnell06:35 PM 57(64/32) 42 53 57 190 617 @ 01:15 PM 30.31 10 0
EOKKEOKUK MUNI06:35 PM 55(61/32) 37 51 0 016 @ 12:55 PM 30.36 10 0
IKVANKENY06:35 PM 61(66/32) 45 58 56 180 617 @ 03:55 PM 30.29 10 0
ADUAUDUBON06:35 PM 61(68/32) 43 51 0 020 @ 04:15 PM 30.26 10 0
MPZMOUNT PLEASANT06:15 PM 55(63/32) 41 51 59 200 515 @ 03:15 PM 30.36 10 0
EBSWebster City06:15 PM 64(72/32) 41 60 43 200 921 @ 03:55 PM 30.22 10 0
FODFORT DODGE05:56 PM 65(69/32) 42 61 43 210 1122 @ 03:56 PM 30.24 10 0 0
TVKCenterville06:15 PM 55(63/32) 41 59 0 012 @ 10:15 AM 30.36 10 0
CAVCLARION06:35 PM 61(70/32) 41 57 48 190 821 @ 10:35 AM 30.22 10 0
TNUNEWTON MUNI06:35 PM 57(66/32) 43 53 59 190 719 @ 01:35 PM 30.29 10 0
IFAIowa Falls06:35 PM 60(68/31) 45 57 58 170 720 @ 10:15 AM 30.26 10 0
OOAOskaloosa06:35 PM 54(64/31) 42 50 64 190 516 @ 12:15 PM 30.33 10 0
FFLFAIRFIELD06:35 PM 55(63/30) 39 51 55 190 615 @ 10:15 AM 30.34 10 0
AWGWASHINGTON06:35 PM 54(63/30) 41 50 61 200 616 @ 04:15 PM 30.35 10 0
HPTHampton06:35 PM 59(68/30) 43 55 55 190 722 @ 11:15 AM 30.23 10 0
FXYForest City06:35 PM 61(70/30) 41 57 48 200 723 @ 04:35 PM 30.2 10 0
CCYCHARLES CITY06:35 PM 59(66/30) 41 55 51 190 821 @ 11:15 AM 30.24 10 0
MUTMUSCATINE06:35 PM 54(63/30) 37 49 52 180 617 @ 02:55 PM 30.35 10 0
IIBINDEPENDENCE06:35 PM 54(66/29) 40 50 59 190 517 @ 02:15 PM 30.29 10 0 0.94
VTIVINTON06:35 PM 56(66/28) 39 52 53 190 517 @ 11:55 AM 30.3 10 0
DEHDECORAH06:35 PM 57(64/28) 41 53 55 200 721 @ 12:35 PM 30.23 10 0
OLZOELWEIN06:35 PM 55(64/28) 41 51 59 190 820 @ 10:55 AM 30.27 0
MXOMONTICELLO MUNI06:35 PM 54(63/27) 37 49 52 170 517 @ 11:15 AM 30.31 10 0
CWICLINTON05:56 PM 57(62/26) 37 52 47 230 616 @ 12:30 PM 30.34 10 0